createdAt,value
2017-08-31T00:00:59.695Z,24.7
2017-08-31T00:02:07.783Z,24.6
2017-08-31T00:03:15.874Z,24.6
2017-08-31T00:04:23.965Z,24.7
2017-08-31T00:05:32.055Z,24.6
2017-08-31T00:06:42.822Z,24.6
2017-08-31T00:07:48.252Z,24.6
2017-08-31T00:08:56.323Z,24.6
2017-08-31T00:10:04.412Z,24.6
2017-08-31T00:11:12.500Z,24.6
2017-08-31T00:12:20.588Z,24.6
2017-08-31T00:13:28.675Z,24.5
2017-08-31T00:14:36.771Z,24.6
2017-08-31T00:15:44.856Z,24.6
2017-08-31T00:16:52.947Z,24.7
2017-08-31T00:18:01.037Z,24.6
2017-08-31T00:19:09.124Z,24.6
2017-08-31T00:20:17.211Z,24.6
2017-08-31T00:21:25.304Z,24.6
2017-08-31T00:22:33.392Z,24.6
2017-08-31T00:23:41.482Z,24.6
2017-08-31T00:24:49.570Z,24.6
2017-08-31T00:25:57.664Z,24.6
2017-08-31T00:27:05.753Z,24.6
2017-08-31T00:28:13.837Z,24.5
2017-08-31T00:29:21.927Z,24.6
2017-08-31T00:30:30.014Z,24.6
2017-08-31T00:31:38.104Z,24.5
2017-08-31T00:32:46.193Z,24.6
2017-08-31T00:33:54.280Z,24.6
2017-08-31T00:35:02.371Z,24.6
2017-08-31T00:36:10.468Z,24.6
2017-08-31T00:37:18.574Z,24.6
2017-08-31T00:38:26.644Z,24.6
2017-08-31T00:39:34.732Z,24.6
2017-08-31T00:40:42.822Z,24.6
2017-08-31T00:41:50.910Z,24.6
2017-08-31T00:42:59.000Z,24.5
2017-08-31T00:44:07.090Z,24.6
2017-08-31T00:45:15.186Z,24.5
2017-08-31T00:46:23.274Z,24.6
2017-08-31T00:47:31.356Z,24.5
2017-08-31T00:48:39.464Z,24.6
2017-08-31T00:49:47.534Z,24.6
2017-08-31T00:50:55.628Z,24.5
2017-08-31T00:52:03.723Z,24.6
2017-08-31T00:53:11.820Z,24.6
2017-08-31T00:54:19.926Z,24.6
2017-08-31T00:55:28.001Z,24.6
2017-08-31T00:56:36.109Z,24.6
2017-08-31T00:57:44.182Z,24.6
2017-08-31T00:58:52.272Z,24.6
2017-08-31T01:00:00.363Z,24.6
2017-08-31T01:01:08.455Z,24.6
2017-08-31T01:02:16.552Z,24.5
2017-08-31T01:03:24.643Z,24.5
2017-08-31T01:04:32.733Z,24.6
2017-08-31T01:05:40.822Z,24.5
2017-08-31T01:06:48.910Z,24.5
2017-08-31T01:07:57.000Z,24.6
2017-08-31T01:09:05.087Z,24.5
2017-08-31T01:10:13.176Z,24.5
2017-08-31T01:11:21.266Z,24.5
2017-08-31T01:12:29.355Z,24.5
2017-08-31T01:13:37.444Z,24.6
2017-08-31T01:14:45.533Z,24.6
2017-08-31T01:15:53.623Z,24.5
2017-08-31T01:17:01.712Z,24.6
2017-08-31T01:18:09.802Z,24.6
2017-08-31T01:19:17.891Z,24.5
2017-08-31T01:20:25.978Z,24.5
2017-08-31T01:21:34.066Z,24.5
2017-08-31T01:22:42.158Z,24.6
2017-08-31T01:23:50.246Z,24.5
2017-08-31T01:24:58.354Z,24.5
2017-08-31T01:26:06.433Z,24.4
2017-08-31T01:27:14.515Z,24.5
2017-08-31T01:28:22.602Z,24.5
2017-08-31T01:29:30.712Z,24.5
2017-08-31T01:30:38.810Z,24.5
2017-08-31T01:31:46.890Z,24.5
2017-08-31T01:32:54.980Z,24.5
2017-08-31T01:34:03.067Z,24.5
2017-08-31T01:35:11.155Z,24.4
2017-08-31T01:36:19.247Z,24.5
2017-08-31T01:37:27.341Z,24.5
2017-08-31T01:38:35.424Z,24.5
2017-08-31T01:39:43.514Z,24.4
2017-08-31T01:40:51.610Z,24.5
2017-08-31T01:41:59.691Z,24.5
2017-08-31T01:43:07.779Z,24.5
2017-08-31T01:44:15.898Z,24.4
2017-08-31T01:45:23.990Z,24.5
2017-08-31T01:46:32.087Z,24.4
2017-08-31T01:47:40.171Z,24.4
2017-08-31T01:48:48.258Z,24.5
2017-08-31T01:49:56.347Z,24.4
2017-08-31T01:51:04.434Z,24.5
2017-08-31T01:52:12.524Z,24.4
2017-08-31T01:53:20.629Z,24.5
2017-08-31T01:54:28.720Z,24.5
2017-08-31T01:55:36.809Z,24.4
2017-08-31T01:56:44.897Z,24.4
2017-08-31T01:57:52.987Z,24.4
2017-08-31T01:59:01.078Z,24.3
2017-08-31T02:00:09.171Z,24.4
2017-08-31T02:01:17.339Z,24.5
2017-08-31T02:02:25.341Z,24.4
2017-08-31T02:03:33.431Z,24.4
2017-08-31T02:04:41.520Z,24.3
2017-08-31T02:05:49.609Z,24.4
2017-08-31T02:06:57.703Z,24.4
2017-08-31T02:08:05.804Z,24.5
2017-08-31T02:09:13.876Z,24.4
2017-08-31T02:10:21.970Z,24.4
2017-08-31T02:11:30.052Z,24.3
2017-08-31T02:12:38.148Z,24.4
2017-08-31T02:13:46.230Z,24.4
2017-08-31T02:14:54.320Z,24.4
2017-08-31T02:16:02.408Z,24.4
2017-08-31T02:17:10.498Z,24.4
2017-08-31T02:18:18.586Z,24.4
2017-08-31T02:19:26.676Z,24.4
2017-08-31T02:20:34.765Z,24.4
2017-08-31T02:21:42.872Z,24.4
2017-08-31T02:22:50.960Z,24.4
2017-08-31T02:23:59.052Z,24.4
2017-08-31T02:25:07.139Z,24.4
2017-08-31T02:26:15.226Z,24.4
2017-08-31T02:27:23.316Z,24.3
2017-08-31T02:28:31.406Z,24.3
2017-08-31T02:29:39.495Z,24.4
2017-08-31T02:30:47.583Z,24.4
2017-08-31T02:31:55.673Z,24.4
2017-08-31T02:33:03.763Z,24.4
2017-08-31T02:34:11.852Z,24.4
2017-08-31T02:35:19.942Z,24.3
2017-08-31T02:36:28.030Z,24.4
2017-08-31T02:37:36.119Z,24.4
2017-08-31T02:38:44.208Z,24.3
2017-08-31T02:39:52.305Z,24.3
2017-08-31T02:41:00.385Z,24.3
2017-08-31T02:42:08.477Z,24.4
2017-08-31T02:43:16.564Z,24.4
2017-08-31T02:44:24.655Z,24.3
2017-08-31T02:45:32.744Z,24.3
2017-08-31T02:46:40.830Z,24.3
2017-08-31T02:47:48.919Z,24.3
2017-08-31T02:48:57.009Z,24.3
2017-08-31T02:50:05.099Z,24.4
2017-08-31T02:51:13.190Z,24.3
2017-08-31T02:52:21.279Z,24.3
2017-08-31T02:53:29.365Z,24.4
2017-08-31T02:54:37.455Z,24.3
2017-08-31T02:55:45.544Z,24.3
2017-08-31T02:56:53.650Z,24.3
2017-08-31T02:58:01.747Z,24.3
2017-08-31T02:59:09.829Z,24.2
2017-08-31T03:00:17.918Z,24.3
2017-08-31T03:01:26.004Z,24.3
2017-08-31T03:02:34.102Z,24.3
2017-08-31T03:03:42.196Z,24.3
2017-08-31T03:04:50.284Z,24.2
2017-08-31T03:05:58.390Z,24.2
2017-08-31T03:07:06.482Z,24.2
2017-08-31T03:08:14.552Z,24.3
2017-08-31T03:09:22.641Z,24.3
2017-08-31T03:10:30.729Z,24.3
2017-08-31T03:11:38.817Z,24.2
2017-08-31T03:12:46.907Z,24.2
2017-08-31T03:13:54.996Z,24.3
2017-08-31T03:15:03.086Z,24.2
2017-08-31T03:16:11.174Z,24.2
2017-08-31T03:17:19.268Z,24.2
2017-08-31T03:18:27.353Z,24.3
2017-08-31T03:19:35.442Z,24.3
2017-08-31T03:20:43.531Z,24.3
2017-08-31T03:21:51.620Z,24.2
2017-08-31T03:22:59.710Z,24.2
2017-08-31T03:24:07.799Z,24.3
2017-08-31T03:25:15.889Z,24.2
2017-08-31T03:26:23.997Z,24.2
2017-08-31T03:27:32.071Z,24.2
2017-08-31T03:28:40.153Z,24.3
2017-08-31T03:29:48.242Z,24.2
2017-08-31T03:30:56.331Z,24.2
2017-08-31T03:32:04.420Z,24.2
2017-08-31T03:33:12.509Z,24.2
2017-08-31T03:34:20.599Z,24.2
2017-08-31T03:35:28.692Z,24.2
2017-08-31T03:36:36.782Z,24.2
2017-08-31T03:37:44.871Z,24.2
2017-08-31T03:38:52.959Z,24.2
2017-08-31T03:40:01.226Z,24.2
2017-08-31T03:41:09.137Z,24.2
2017-08-31T03:42:17.226Z,24.2
2017-08-31T03:43:25.316Z,24.2
2017-08-31T03:44:33.404Z,24.2
2017-08-31T03:45:41.492Z,24.2
2017-08-31T03:46:49.629Z,24.2
2017-08-31T03:47:57.670Z,24.2
2017-08-31T03:49:05.759Z,24.2
2017-08-31T03:50:13.846Z,24.2
2017-08-31T03:51:21.941Z,24.1
2017-08-31T03:52:30.026Z,24.2
2017-08-31T03:53:38.116Z,24.2
2017-08-31T03:54:46.207Z,24.2
2017-08-31T03:55:54.294Z,24.1
2017-08-31T03:57:02.382Z,24.1
2017-08-31T03:58:10.469Z,24.1
2017-08-31T03:59:18.558Z,24.1
2017-08-31T04:00:26.644Z,24.1
2017-08-31T04:01:34.736Z,24.1
2017-08-31T04:02:42.825Z,24.1
2017-08-31T04:03:50.916Z,24.1
2017-08-31T04:04:59.002Z,24.2
2017-08-31T04:06:07.091Z,24.1
2017-08-31T04:07:15.190Z,24.1
2017-08-31T04:08:23.279Z,24.1
2017-08-31T04:09:31.370Z,24.1
2017-08-31T04:10:39.457Z,24.1
2017-08-31T04:11:47.547Z,24.1
2017-08-31T04:12:55.642Z,24.1
2017-08-31T04:14:03.724Z,24.1
2017-08-31T04:15:11.812Z,24.1
2017-08-31T04:16:19.902Z,24.0
2017-08-31T04:17:27.990Z,24.1
2017-08-31T04:18:36.078Z,24.1
2017-08-31T04:19:44.188Z,24.1
2017-08-31T04:20:52.256Z,24.1
2017-08-31T04:22:00.347Z,24.1
2017-08-31T04:23:08.436Z,24.0
2017-08-31T04:24:16.525Z,24.1
2017-08-31T04:25:24.612Z,24.0
2017-08-31T04:26:32.699Z,24.1
2017-08-31T04:27:40.788Z,24.1
2017-08-31T04:28:48.879Z,24.1
2017-08-31T04:29:56.967Z,24.0
2017-08-31T04:31:05.060Z,24.0
2017-08-31T04:32:13.146Z,24.1
2017-08-31T04:33:21.230Z,24.1
2017-08-31T04:34:29.326Z,24.1
2017-08-31T04:35:37.415Z,24.1
2017-08-31T04:36:45.503Z,24.1
2017-08-31T04:37:53.600Z,24.1
2017-08-31T04:39:01.677Z,24.0
2017-08-31T04:40:09.776Z,24.0
2017-08-31T04:41:17.865Z,24.1
2017-08-31T04:42:26.074Z,24.0
2017-08-31T04:43:34.044Z,24.1
2017-08-31T04:44:42.129Z,24.0
2017-08-31T04:45:50.218Z,24.0
2017-08-31T04:46:58.307Z,24.1
2017-08-31T04:48:06.396Z,24.0
2017-08-31T04:49:15.140Z,24.0
2017-08-31T04:50:22.575Z,24.0
2017-08-31T04:51:30.663Z,24.1
2017-08-31T04:52:38.752Z,24.0
2017-08-31T04:53:46.841Z,24.0
2017-08-31T04:54:54.930Z,24.0
2017-08-31T04:56:03.019Z,24.0
2017-08-31T04:57:11.105Z,24.0
2017-08-31T04:58:19.193Z,24.0
2017-08-31T04:59:27.365Z,24.0
2017-08-31T05:00:35.374Z,24.0
2017-08-31T05:01:43.470Z,24.0
2017-08-31T05:02:51.559Z,24.0
2017-08-31T05:03:59.647Z,24.0
2017-08-31T05:05:08.405Z,24.0
2017-08-31T05:06:15.827Z,23.9
2017-08-31T05:07:23.921Z,24.0
2017-08-31T05:08:32.031Z,24.0
2017-08-31T05:09:40.097Z,24.0
2017-08-31T05:10:48.500Z,24.1
2017-08-31T05:11:56.274Z,24.0
2017-08-31T05:13:04.375Z,24.0
2017-08-31T05:14:12.636Z,24.1
2017-08-31T05:15:20.660Z,24.0
2017-08-31T05:16:28.749Z,24.1
2017-08-31T05:17:36.838Z,24.0
2017-08-31T05:18:44.928Z,24.0
2017-08-31T05:19:53.025Z,24.0
2017-08-31T05:21:01.114Z,24.0
2017-08-31T05:22:09.204Z,24.1
2017-08-31T05:23:17.291Z,24.0
2017-08-31T05:24:25.380Z,23.9
2017-08-31T05:25:33.470Z,24.0
2017-08-31T05:26:41.562Z,24.0
2017-08-31T05:27:49.645Z,24.0
2017-08-31T05:28:57.733Z,24.0
2017-08-31T05:30:05.832Z,24.0
2017-08-31T05:31:13.912Z,23.9
2017-08-31T05:32:22.000Z,23.9
2017-08-31T05:33:30.090Z,23.9
2017-08-31T05:34:38.178Z,23.9
2017-08-31T05:35:46.312Z,24.0
2017-08-31T05:36:54.356Z,23.9
2017-08-31T05:38:02.443Z,23.9
2017-08-31T05:39:10.532Z,23.9
2017-08-31T05:40:18.624Z,24.0
2017-08-31T05:41:26.708Z,23.9
2017-08-31T05:42:34.796Z,24.0
2017-08-31T05:43:42.893Z,23.9
2017-08-31T05:44:50.982Z,23.9
2017-08-31T05:45:59.130Z,23.9
2017-08-31T05:47:07.158Z,24.0
2017-08-31T05:48:15.245Z,23.9
2017-08-31T05:49:23.335Z,23.9
2017-08-31T05:50:31.425Z,23.9
2017-08-31T05:51:39.512Z,23.9
2017-08-31T05:52:47.603Z,23.9
2017-08-31T05:53:55.689Z,23.9
2017-08-31T05:55:03.778Z,23.9
2017-08-31T05:56:11.865Z,23.9
2017-08-31T05:57:19.953Z,23.9
2017-08-31T05:58:28.056Z,23.9
2017-08-31T05:59:36.130Z,23.9
2017-08-31T06:00:44.218Z,23.9
2017-08-31T06:01:52.306Z,23.9
2017-08-31T06:03:00.396Z,23.9
2017-08-31T06:04:08.485Z,23.9
2017-08-31T06:05:16.580Z,23.9
2017-08-31T06:06:24.662Z,23.9
2017-08-31T06:07:32.750Z,23.9
2017-08-31T06:08:40.842Z,23.9
2017-08-31T06:09:48.928Z,23.9
2017-08-31T06:10:57.023Z,23.9
2017-08-31T06:12:05.105Z,23.9
2017-08-31T06:13:13.193Z,23.9
2017-08-31T06:14:21.281Z,23.9
2017-08-31T06:15:29.399Z,23.9
2017-08-31T06:16:37.468Z,23.8
2017-08-31T06:17:45.565Z,23.9
2017-08-31T06:18:53.653Z,23.8
2017-08-31T06:20:01.742Z,23.8
2017-08-31T06:21:09.831Z,23.9
2017-08-31T06:22:17.918Z,23.8
2017-08-31T06:23:26.012Z,23.9
2017-08-31T06:24:34.108Z,23.8
2017-08-31T06:25:42.189Z,23.8
2017-08-31T06:26:50.282Z,23.8
2017-08-31T06:27:58.372Z,23.8
2017-08-31T06:29:06.461Z,23.8
2017-08-31T06:30:14.555Z,23.9
2017-08-31T06:31:22.635Z,23.8
2017-08-31T06:32:30.729Z,23.8
2017-08-31T06:33:38.820Z,23.8
2017-08-31T06:34:46.911Z,23.8
2017-08-31T06:35:55.029Z,23.8
2017-08-31T06:37:03.088Z,23.8
2017-08-31T06:38:11.186Z,23.8
2017-08-31T06:39:19.275Z,23.8
2017-08-31T06:40:27.364Z,23.7
2017-08-31T06:41:35.453Z,23.9
2017-08-31T06:42:43.623Z,23.8
2017-08-31T06:43:51.634Z,23.9
2017-08-31T06:44:59.719Z,23.8
2017-08-31T06:46:07.836Z,23.8
2017-08-31T06:47:15.896Z,23.8
2017-08-31T06:48:24.003Z,23.8
2017-08-31T06:49:32.091Z,23.7
2017-08-31T06:50:40.181Z,23.8
2017-08-31T06:51:48.269Z,23.8
2017-08-31T06:52:56.356Z,23.8
2017-08-31T06:54:04.443Z,23.8
2017-08-31T06:55:12.534Z,23.8
2017-08-31T06:56:20.639Z,23.8
2017-08-31T06:57:28.732Z,23.8
2017-08-31T06:58:36.859Z,23.7
2017-08-31T06:59:44.888Z,23.8
2017-08-31T07:00:52.975Z,23.8
2017-08-31T07:02:01.063Z,23.8
2017-08-31T07:03:09.152Z,23.8
2017-08-31T07:04:17.241Z,23.7
2017-08-31T07:05:25.338Z,23.7
2017-08-31T07:06:33.418Z,23.8
2017-08-31T07:07:41.507Z,23.8
2017-08-31T07:08:49.596Z,23.8
2017-08-31T07:09:57.694Z,23.8
2017-08-31T07:11:05.808Z,23.8
2017-08-31T07:12:13.878Z,23.8
2017-08-31T07:13:21.966Z,23.7
2017-08-31T07:14:30.058Z,23.8
2017-08-31T07:15:38.144Z,23.8
2017-08-31T07:16:46.229Z,23.8
2017-08-31T07:17:54.320Z,23.8
2017-08-31T07:19:02.428Z,23.8
2017-08-31T07:20:10.537Z,23.8
2017-08-31T07:21:18.607Z,23.8
2017-08-31T07:22:26.694Z,23.8
2017-08-31T07:23:34.781Z,23.7
2017-08-31T07:24:42.871Z,23.7
2017-08-31T07:25:50.964Z,23.7
2017-08-31T07:26:59.047Z,23.7
2017-08-31T07:28:07.136Z,23.8
2017-08-31T07:29:15.231Z,23.8
2017-08-31T07:30:23.314Z,23.7
2017-08-31T07:31:31.416Z,23.8
2017-08-31T07:32:39.507Z,23.9
2017-08-31T07:33:47.596Z,23.7
2017-08-31T07:34:55.694Z,23.8
2017-08-31T07:36:03.777Z,23.7
2017-08-31T07:37:11.865Z,23.7
2017-08-31T07:38:19.954Z,23.8
2017-08-31T07:39:28.043Z,23.7
2017-08-31T07:40:36.131Z,23.7
2017-08-31T07:41:44.220Z,23.8
2017-08-31T07:42:52.309Z,23.7
2017-08-31T07:44:00.400Z,23.7
2017-08-31T07:45:08.486Z,23.7
2017-08-31T07:46:16.572Z,23.7
2017-08-31T07:47:24.677Z,23.7
2017-08-31T07:48:32.784Z,23.7
2017-08-31T07:49:40.860Z,23.7
2017-08-31T07:50:48.991Z,23.7
2017-08-31T07:51:57.080Z,23.7
2017-08-31T07:53:05.168Z,23.7
2017-08-31T07:54:13.257Z,23.7
2017-08-31T07:55:21.345Z,23.7
2017-08-31T07:56:29.435Z,23.8
2017-08-31T07:57:37.532Z,23.7
2017-08-31T07:58:45.619Z,23.6
2017-08-31T07:59:53.713Z,23.6
2017-08-31T08:01:01.797Z,23.6
2017-08-31T08:02:09.887Z,23.6
2017-08-31T08:03:17.972Z,23.6
2017-08-31T08:04:26.061Z,23.6
2017-08-31T08:05:34.150Z,23.6
2017-08-31T08:06:42.240Z,23.7
2017-08-31T08:07:50.328Z,23.6
2017-08-31T08:08:58.418Z,23.6
2017-08-31T08:10:06.505Z,23.6
2017-08-31T08:11:14.602Z,23.6
2017-08-31T08:12:22.690Z,23.7
2017-08-31T08:13:30.779Z,23.6
2017-08-31T08:14:38.867Z,23.6
2017-08-31T08:15:46.955Z,23.7
2017-08-31T08:16:55.042Z,23.6
2017-08-31T08:18:03.135Z,23.6
2017-08-31T08:19:11.224Z,23.7
2017-08-31T08:20:19.320Z,23.6
2017-08-31T08:21:27.400Z,23.7
2017-08-31T08:22:35.488Z,23.7
2017-08-31T08:23:43.577Z,23.7
2017-08-31T08:24:51.663Z,23.6
2017-08-31T08:25:59.752Z,23.6
2017-08-31T08:27:07.841Z,23.6
2017-08-31T08:28:15.929Z,23.6
2017-08-31T08:29:24.024Z,23.7
2017-08-31T08:30:32.107Z,23.7
2017-08-31T08:31:40.201Z,23.6
2017-08-31T08:32:48.288Z,23.6
2017-08-31T08:33:56.377Z,23.7
2017-08-31T08:35:04.465Z,23.6
2017-08-31T08:36:12.555Z,23.6
2017-08-31T08:37:20.642Z,23.6
2017-08-31T08:38:28.731Z,23.6
2017-08-31T08:39:36.819Z,23.6
2017-08-31T08:40:44.908Z,23.6
2017-08-31T08:41:52.996Z,23.6
2017-08-31T08:43:01.084Z,23.6
2017-08-31T08:44:09.171Z,23.6
2017-08-31T08:45:17.266Z,23.6
2017-08-31T08:46:25.356Z,23.6
2017-08-31T08:47:33.453Z,23.6
2017-08-31T08:48:41.540Z,23.6
2017-08-31T08:49:49.627Z,23.6
2017-08-31T08:50:57.715Z,23.5
2017-08-31T08:52:05.853Z,23.6
2017-08-31T08:53:13.940Z,23.5
2017-08-31T08:54:22.030Z,23.5
2017-08-31T08:55:30.117Z,23.6
2017-08-31T08:56:38.205Z,23.5
2017-08-31T08:57:46.291Z,23.5
2017-08-31T08:58:54.381Z,23.5
2017-08-31T09:00:02.470Z,23.6
2017-08-31T09:01:10.559Z,23.5
2017-08-31T09:02:18.651Z,23.6
2017-08-31T09:03:26.740Z,23.5
2017-08-31T09:04:34.831Z,23.5
2017-08-31T09:05:42.915Z,23.5
2017-08-31T09:06:51.004Z,23.6
2017-08-31T09:07:59.091Z,23.5
2017-08-31T09:09:07.180Z,23.5
2017-08-31T09:10:15.270Z,23.5
2017-08-31T09:11:23.358Z,23.5
2017-08-31T09:12:31.445Z,23.6
2017-08-31T09:13:39.532Z,23.5
2017-08-31T09:14:47.621Z,23.5
2017-08-31T09:15:55.709Z,23.5
2017-08-31T09:17:03.796Z,23.6
2017-08-31T09:18:11.884Z,23.5
2017-08-31T09:19:19.974Z,23.5
2017-08-31T09:20:28.062Z,23.5
2017-08-31T09:21:36.164Z,23.5
2017-08-31T09:22:44.249Z,23.5
2017-08-31T09:23:52.336Z,23.5
2017-08-31T09:25:00.509Z,23.6
2017-08-31T09:26:08.511Z,23.6
2017-08-31T09:27:16.600Z,23.6
2017-08-31T09:28:24.695Z,23.6
2017-08-31T09:29:32.777Z,23.6
2017-08-31T09:30:40.863Z,23.6
2017-08-31T09:31:48.952Z,23.6
2017-08-31T09:32:57.042Z,23.6
2017-08-31T09:34:05.127Z,23.5
2017-08-31T09:35:13.223Z,23.5
2017-08-31T09:36:21.304Z,23.6
2017-08-31T09:37:29.393Z,23.5
2017-08-31T09:38:37.481Z,23.6
2017-08-31T09:39:45.568Z,23.5
2017-08-31T09:40:53.658Z,23.5
2017-08-31T09:42:01.747Z,23.4
2017-08-31T09:43:09.834Z,23.5
2017-08-31T09:44:17.930Z,23.6
2017-08-31T09:45:26.018Z,23.5
2017-08-31T09:46:34.106Z,23.5
2017-08-31T09:47:42.197Z,23.5
2017-08-31T09:48:50.284Z,23.5
2017-08-31T09:49:58.372Z,23.5
2017-08-31T09:51:06.463Z,23.5
2017-08-31T09:52:14.554Z,23.5
2017-08-31T09:53:22.636Z,23.4
2017-08-31T09:54:30.724Z,23.4
2017-08-31T09:55:38.811Z,23.5
2017-08-31T09:56:46.902Z,23.5
2017-08-31T09:57:54.988Z,23.5
2017-08-31T09:59:03.076Z,23.5
2017-08-31T10:00:11.165Z,23.5
2017-08-31T10:01:19.253Z,23.5
2017-08-31T10:02:27.340Z,23.5
2017-08-31T10:03:35.430Z,23.4
2017-08-31T10:04:43.517Z,23.4
2017-08-31T10:05:51.606Z,23.5
2017-08-31T10:06:59.711Z,23.5
2017-08-31T10:08:07.781Z,23.4
2017-08-31T10:09:15.870Z,23.4
2017-08-31T10:10:23.959Z,23.4
2017-08-31T10:11:32.045Z,23.4
2017-08-31T10:12:40.137Z,23.4
2017-08-31T10:13:48.222Z,23.4
2017-08-31T10:14:56.310Z,23.5
2017-08-31T10:16:04.399Z,23.5
2017-08-31T10:17:12.488Z,23.4
2017-08-31T10:18:20.583Z,23.4
2017-08-31T10:19:28.662Z,23.4
2017-08-31T10:20:36.749Z,23.5
2017-08-31T10:21:44.836Z,23.5
2017-08-31T10:22:52.929Z,23.4
2017-08-31T10:24:01.014Z,23.5
2017-08-31T10:25:09.101Z,23.4
2017-08-31T10:26:17.190Z,23.4
2017-08-31T10:27:25.279Z,23.4
2017-08-31T10:28:33.368Z,23.4
2017-08-31T10:29:41.455Z,23.5
2017-08-31T10:30:49.541Z,23.5
2017-08-31T10:31:57.637Z,23.4
2017-08-31T10:33:05.720Z,23.4
2017-08-31T10:34:13.805Z,23.5
2017-08-31T10:35:21.895Z,23.4
2017-08-31T10:36:29.982Z,23.4
2017-08-31T10:37:38.076Z,23.4
2017-08-31T10:38:46.159Z,23.4
2017-08-31T10:39:54.248Z,23.4
2017-08-31T10:41:02.335Z,23.4
2017-08-31T10:42:10.433Z,23.4
2017-08-31T10:43:18.522Z,23.4
2017-08-31T10:44:26.609Z,23.3
2017-08-31T10:45:34.705Z,23.3
2017-08-31T10:46:42.788Z,23.4
2017-08-31T10:47:50.875Z,23.4
2017-08-31T10:48:58.962Z,23.5
2017-08-31T10:50:07.059Z,23.4
2017-08-31T10:51:15.147Z,23.4
2017-08-31T10:52:23.237Z,23.4
2017-08-31T10:53:31.326Z,23.4
2017-08-31T10:54:39.413Z,23.4
2017-08-31T10:55:47.501Z,23.4
2017-08-31T10:56:55.588Z,23.4
2017-08-31T10:58:03.673Z,23.5
2017-08-31T10:59:11.766Z,23.4
2017-08-31T11:00:19.852Z,23.4
2017-08-31T11:01:27.940Z,23.4
2017-08-31T11:02:36.032Z,23.4
2017-08-31T11:03:44.124Z,23.4
2017-08-31T11:04:52.205Z,23.4
2017-08-31T11:06:00.463Z,23.4
2017-08-31T11:07:08.381Z,23.4
2017-08-31T11:08:16.471Z,23.4
2017-08-31T11:09:24.569Z,23.3
2017-08-31T11:10:32.657Z,23.4
2017-08-31T11:11:40.779Z,23.4
2017-08-31T11:12:48.869Z,23.5
2017-08-31T11:13:56.954Z,23.3
2017-08-31T11:15:05.105Z,23.4
2017-08-31T11:16:13.130Z,23.4
2017-08-31T11:17:21.218Z,23.4
2017-08-31T11:18:29.306Z,23.3
2017-08-31T11:19:37.395Z,23.4
2017-08-31T11:20:45.483Z,23.4
2017-08-31T11:21:53.570Z,23.3
2017-08-31T11:23:01.658Z,23.3
2017-08-31T11:24:09.773Z,23.3
2017-08-31T11:25:17.862Z,23.4
2017-08-31T11:26:26.014Z,23.4
2017-08-31T11:27:34.136Z,23.3
2017-08-31T11:28:42.260Z,23.4
2017-08-31T11:29:50.247Z,23.3
2017-08-31T11:30:58.437Z,23.3
2017-08-31T11:32:06.423Z,23.3
2017-08-31T11:33:14.692Z,23.3
2017-08-31T11:34:22.587Z,23.3
2017-08-31T11:35:30.658Z,23.3
2017-08-31T11:36:38.785Z,23.3
2017-08-31T11:37:46.830Z,23.4
2017-08-31T11:38:54.917Z,23.3
2017-08-31T11:40:03.009Z,23.4
2017-08-31T11:41:11.095Z,23.3
2017-08-31T11:42:19.183Z,23.3
2017-08-31T11:43:27.271Z,23.4
2017-08-31T11:44:35.361Z,23.3
2017-08-31T11:45:43.447Z,23.3
2017-08-31T11:46:51.534Z,23.3
2017-08-31T11:47:59.624Z,23.4
2017-08-31T11:49:07.709Z,23.3
2017-08-31T11:50:15.797Z,23.3
2017-08-31T11:51:23.885Z,23.2
2017-08-31T11:52:31.975Z,23.3
2017-08-31T11:53:40.065Z,23.3
2017-08-31T11:54:48.150Z,23.3
2017-08-31T11:55:56.237Z,23.3
2017-08-31T11:57:04.336Z,23.3
2017-08-31T11:58:12.423Z,23.3
2017-08-31T11:59:20.503Z,23.3
2017-08-31T12:00:28.589Z,23.3
2017-08-31T12:01:36.677Z,23.3
2017-08-31T12:02:44.767Z,23.3
2017-08-31T12:03:52.854Z,23.3
2017-08-31T12:05:00.937Z,23.3
2017-08-31T12:06:09.031Z,23.3
2017-08-31T12:07:17.118Z,23.3
2017-08-31T12:08:25.207Z,23.2
2017-08-31T12:09:33.294Z,23.3
2017-08-31T12:10:41.380Z,23.3
2017-08-31T12:11:49.469Z,23.3
2017-08-31T12:12:57.561Z,23.3
2017-08-31T12:14:05.652Z,23.2
2017-08-31T12:15:13.730Z,23.3
2017-08-31T12:16:21.820Z,23.2
2017-08-31T12:17:29.915Z,23.3
2017-08-31T12:18:37.997Z,23.3
2017-08-31T12:19:46.082Z,23.3
2017-08-31T12:20:54.174Z,23.2
2017-08-31T12:22:02.281Z,23.3
2017-08-31T12:23:10.745Z,23.2
2017-08-31T12:24:18.835Z,23.2
2017-08-31T12:25:26.924Z,23.1
2017-08-31T12:26:35.009Z,23.2
2017-08-31T12:27:43.100Z,23.2
2017-08-31T12:28:51.185Z,23.3
2017-08-31T12:29:59.273Z,23.2
2017-08-31T12:31:07.363Z,23.2
2017-08-31T12:32:15.449Z,23.2
2017-08-31T12:33:23.538Z,23.2
2017-08-31T12:34:31.626Z,23.2
2017-08-31T12:35:39.715Z,23.2
2017-08-31T12:36:47.810Z,23.2
2017-08-31T12:37:55.898Z,23.2
2017-08-31T12:39:03.992Z,23.2
2017-08-31T12:40:12.090Z,23.2
2017-08-31T12:41:20.174Z,23.1
2017-08-31T12:42:28.262Z,23.2
2017-08-31T12:43:36.350Z,23.1
2017-08-31T12:44:44.440Z,23.2
2017-08-31T12:45:52.527Z,23.2
2017-08-31T12:47:00.617Z,23.2
2017-08-31T12:48:08.702Z,23.2
2017-08-31T12:49:16.792Z,23.1
2017-08-31T12:50:24.880Z,23.2
2017-08-31T12:51:32.965Z,23.1
2017-08-31T12:52:41.055Z,23.2
2017-08-31T12:53:49.143Z,23.2
2017-08-31T12:54:57.231Z,23.1
2017-08-31T12:56:05.319Z,23.2
2017-08-31T12:57:13.408Z,23.1
2017-08-31T12:58:21.495Z,23.1
2017-08-31T12:59:29.582Z,23.1
2017-08-31T13:00:37.672Z,23.2
2017-08-31T13:01:45.757Z,23.1
2017-08-31T13:02:53.846Z,23.1
2017-08-31T13:04:01.940Z,23.1
2017-08-31T13:05:10.026Z,23.2
2017-08-31T13:06:18.112Z,23.2
2017-08-31T13:07:26.201Z,23.1
2017-08-31T13:08:34.381Z,23.1
2017-08-31T13:09:42.386Z,23.2
2017-08-31T13:10:50.482Z,23.2
2017-08-31T13:11:58.573Z,23.1
2017-08-31T13:13:06.659Z,23.1
2017-08-31T13:14:14.748Z,23.2
2017-08-31T13:15:22.834Z,23.2
2017-08-31T13:16:30.922Z,23.1
2017-08-31T13:17:39.052Z,23.1
2017-08-31T13:18:47.099Z,23.1
2017-08-31T13:19:55.187Z,23.1
2017-08-31T13:21:03.273Z,23.1
2017-08-31T13:22:11.367Z,23.2
2017-08-31T13:23:19.450Z,23.2
2017-08-31T13:24:27.537Z,23.2
2017-08-31T13:25:35.642Z,23.1
2017-08-31T13:26:43.711Z,23.2
2017-08-31T13:27:51.799Z,23.2
2017-08-31T13:28:59.889Z,23.2
2017-08-31T13:30:07.975Z,23.1
2017-08-31T13:31:16.064Z,23.1
2017-08-31T13:32:24.152Z,23.2
2017-08-31T13:33:32.240Z,23.2
2017-08-31T13:34:40.327Z,23.2
2017-08-31T13:35:48.416Z,23.2
2017-08-31T13:36:56.504Z,23.1
2017-08-31T13:38:04.590Z,23.2
2017-08-31T13:39:12.678Z,23.1
2017-08-31T13:40:20.767Z,23.1
2017-08-31T13:41:28.856Z,23.1
2017-08-31T13:42:36.955Z,23.1
2017-08-31T13:43:45.031Z,23.1
2017-08-31T13:44:53.118Z,23.1
2017-08-31T13:46:01.208Z,23.1
2017-08-31T13:47:09.296Z,23.1
2017-08-31T13:48:17.382Z,23.1
2017-08-31T13:49:25.474Z,23.1
2017-08-31T13:50:33.560Z,23.1
2017-08-31T13:51:41.647Z,23.1
2017-08-31T13:52:49.804Z,23.1
2017-08-31T13:53:57.893Z,23.1
2017-08-31T13:55:05.986Z,23.1
2017-08-31T13:56:14.074Z,23.1
2017-08-31T13:57:22.161Z,23.1
2017-08-31T13:58:30.250Z,23.1
2017-08-31T13:59:38.338Z,23.1
2017-08-31T14:00:46.425Z,23.1
2017-08-31T14:01:54.512Z,23.1
2017-08-31T14:03:02.601Z,23.1
2017-08-31T14:04:10.797Z,23.1
2017-08-31T14:05:18.891Z,23.1
2017-08-31T14:06:26.984Z,23.1
2017-08-31T14:07:35.092Z,23.1
2017-08-31T14:08:43.172Z,23.1
2017-08-31T14:09:51.292Z,23.1
2017-08-31T14:10:59.356Z,23.1
2017-08-31T14:12:07.444Z,23.1
2017-08-31T14:13:15.535Z,23.1
2017-08-31T14:14:23.620Z,23.0
2017-08-31T14:15:31.704Z,23.1
2017-08-31T14:16:39.843Z,23.1
2017-08-31T14:17:47.881Z,23.1
2017-08-31T14:18:55.980Z,23.1
2017-08-31T14:20:04.068Z,23.1
2017-08-31T14:21:12.155Z,23.1
2017-08-31T14:22:20.245Z,23.1
2017-08-31T14:23:28.335Z,23.0
2017-08-31T14:24:36.422Z,23.1
2017-08-31T14:25:44.511Z,23.1
2017-08-31T14:26:52.600Z,23.0
2017-08-31T14:28:00.687Z,23.1
2017-08-31T14:29:08.775Z,23.1
2017-08-31T14:30:16.862Z,23.1
2017-08-31T14:31:24.950Z,23.1
2017-08-31T14:32:33.037Z,23.0
2017-08-31T14:33:41.126Z,23.0
2017-08-31T14:34:49.221Z,23.1
2017-08-31T14:35:57.318Z,23.0
2017-08-31T14:37:05.417Z,23.1
2017-08-31T14:38:13.515Z,23.1
2017-08-31T14:39:21.604Z,23.1
2017-08-31T14:40:29.697Z,23.0
2017-08-31T14:41:37.779Z,23.0
2017-08-31T14:42:45.893Z,23.0
2017-08-31T14:43:53.964Z,23.0
2017-08-31T14:45:02.052Z,23.1
2017-08-31T14:46:10.138Z,23.1
2017-08-31T14:47:18.227Z,23.0
2017-08-31T14:48:26.316Z,23.0
2017-08-31T14:49:34.402Z,23.1
2017-08-31T14:50:42.488Z,23.0
2017-08-31T14:51:50.578Z,23.0
2017-08-31T14:52:58.664Z,22.9
2017-08-31T14:54:06.753Z,22.9
2017-08-31T14:55:14.843Z,23.0
2017-08-31T14:56:22.936Z,22.9
2017-08-31T14:57:31.025Z,23.0
2017-08-31T14:58:39.110Z,23.0
2017-08-31T14:59:47.197Z,22.9
2017-08-31T15:00:55.286Z,22.9
2017-08-31T15:02:03.376Z,22.9
2017-08-31T15:03:11.463Z,22.9
2017-08-31T15:04:19.553Z,22.9
2017-08-31T15:05:27.639Z,22.9
2017-08-31T15:06:35.734Z,23.0